Simpson, KS (67478)

5:13 PM CST on November 25, 2014 (GMT -0600)
Simpson KS | Change Station
CLOSE
Current Station
Personal Weather Station
Location: Beloit, KS
Elevation: 1342 ft
Nearby Weather Stations

Elev 1342 ft 39.39 °N, 97.94 °W | Updated 2 minutes ago

Overcast
Overcast
48.0 °F
Feels Like 43 °F
N
11.4
Wind Variable Wind from SSE

Today
High -- | Low -- °F
--% Chance of Precip.
Yesterday
High -- | Low -- °F
Precip. -- in
7:26 AM 5:10 PM
Waxing Crescent, 14% visible
Pressure 29.99 in
Visibility 10.0 miles
Clouds Overcast 10000 ft
Windchill 43 °F
Dew Point 33 °F
Humidity 55%
Rainfall 0.00 in
Snow Depth Not available.
UV 0 out of 12
Pollen .10 out of 12
Air Quality Not available.
Flu Activity Not available.
METAR KCNK 252255Z AUTO 20008KT 10SM OVC100 08/M06 A2995 RMK AO2 SLP153 T00831056

More Conditions Fewer Conditions

Pressure 29.99 in
Visibility 10.0 miles
Clouds Overcast 10000 ft
Windchill 43 °F
Dew Point 33 °F
Humidity 55%
Rainfall 0.00 in
Snow Depth Not available.
UV 0 out of 12
Pollen .10 out of 12
Air Quality Not available.
Flu Activity Not available.
METAR KCNK 252255Z AUTO 20008KT 10SM OVC100 08/M06 A2995 RMK AO2 SLP153 T00831056

More Conditions Fewer Conditions

10-Day Weather Forecast

Almanac

Astronomy

Nov. 25, 2014 Rise Set
Actual Time
Civil Twilight
Nautical Twilight
Astronomical Twilight
Moon
Length of Visible Light
Length of Day
Tomorrow will be .
, % of the Moon is Illuminated

Today's Extremes

State Highs State Lows

Community

WunderPhotos

Upload Photos

1,773,620 photos uploaded!

WunderBlogs® & News

Nearby

Air Quality

  Air Quality AQ Index Pollutant
Not available.

Snow Depth

Station Depth Elevation

Earthquake Activity

City Distance Mag. Time & Date
Minimum magnitude displayed is 2.5.

Coastal Water Temperatures

Place Temperature

Nearby Weather Stations